createdAt,value
2019-05-17T00:00:57.424Z,21.90
2019-05-17T00:03:27.091Z,24.47
2019-05-17T00:05:56.997Z,20.40
2019-05-17T00:08:33.931Z,21.20
2019-05-17T00:10:57.416Z,22.00
2019-05-17T00:13:26.941Z,20.63
2019-05-17T00:15:56.654Z,21.40
2019-05-17T00:18:26.552Z,22.30
2019-05-17T00:20:56.945Z,21.30
2019-05-17T00:23:26.897Z,21.97
2019-05-17T00:25:56.548Z,22.50
2019-05-17T00:28:26.896Z,20.30
2019-05-17T00:30:57.130Z,22.00
2019-05-17T00:33:27.259Z,23.80
2019-05-17T00:35:56.625Z,20.20
2019-05-17T00:38:27.433Z,18.07
2019-05-17T00:40:56.935Z,20.83
2019-05-17T00:43:26.378Z,23.80
2019-05-17T00:45:57.468Z,21.57
2019-05-17T00:48:26.609Z,20.60
2019-05-17T00:51:01.166Z,17.43
2019-05-17T00:53:26.883Z,19.30
2019-05-17T00:55:57.333Z,24.17
2019-05-17T00:58:26.681Z,21.67
2019-05-17T01:00:57.149Z,21.00
2019-05-17T01:03:26.897Z,21.23
2019-05-17T01:05:56.775Z,16.33
2019-05-17T01:08:26.657Z,20.40
2019-05-17T01:10:56.595Z,18.37
2019-05-17T01:13:26.703Z,20.33
2019-05-17T01:15:56.586Z,18.33
2019-05-17T01:18:33.046Z,23.60
2019-05-17T01:21:02.348Z,24.80
2019-05-17T01:23:31.972Z,23.57
2019-05-17T01:26:01.237Z,19.10
2019-05-17T01:28:30.619Z,21.13
2019-05-17T01:31:00.019Z,21.23
2019-05-17T01:33:29.333Z,22.50
2019-05-17T01:35:58.667Z,21.53
2019-05-17T01:38:27.923Z,19.67
2019-05-17T01:40:58.055Z,22.33
2019-05-17T01:43:27.507Z,22.47
2019-05-17T01:45:57.419Z,19.17
2019-05-17T01:48:27.119Z,23.83
2019-05-17T01:50:56.796Z,20.80
2019-05-17T01:53:27.063Z,17.17
2019-05-17T01:55:56.826Z,20.47
2019-05-17T01:58:26.973Z,19.67
2019-05-17T02:00:57.306Z,21.27
2019-05-17T02:03:26.921Z,20.83
2019-05-17T02:05:56.656Z,21.90
2019-05-17T02:08:26.466Z,19.53
2019-05-17T02:10:57.359Z,19.10
2019-05-17T02:13:26.935Z,19.70
2019-05-17T02:17:06.873Z,14.60
2019-05-17T02:19:37.204Z,17.13
2019-05-17T02:22:07.511Z,19.73
2019-05-17T02:24:37.069Z,18.07
2019-05-17T02:27:06.490Z,14.60
2019-05-17T02:29:35.798Z,19.53
2019-05-17T02:32:05.042Z,18.73
2019-05-17T02:34:34.336Z,18.67
2019-05-17T02:37:03.544Z,18.27
2019-05-17T02:39:32.995Z,14.13
2019-05-17T02:42:02.945Z,16.40
2019-05-17T02:44:33.543Z,18.20
2019-05-17T02:47:03.333Z,17.07
2019-05-17T02:49:33.277Z,18.37
2019-05-17T02:52:03.434Z,23.83
2019-05-17T02:54:33.046Z,18.60
2019-05-17T02:57:03.296Z,17.20
2019-05-17T02:59:33.251Z,20.20
2019-05-17T03:02:03.606Z,19.77
2019-05-17T03:04:33.120Z,14.50
2019-05-17T03:07:04.596Z,15.90
2019-05-17T03:09:34.023Z,16.77
2019-05-17T03:12:03.876Z,14.00
2019-05-17T03:14:33.180Z,15.40
2019-05-17T03:17:03.468Z,18.07
2019-05-17T03:19:33.143Z,20.10
2019-05-17T03:22:07.241Z,17.70
2019-05-17T03:24:33.676Z,14.37
2019-05-17T03:27:03.235Z,15.80
2019-05-17T03:29:33.565Z,18.60
2019-05-17T03:32:08.781Z,16.57
2019-05-17T03:34:37.116Z,17.30
2019-05-17T03:37:06.743Z,16.60
2019-05-17T03:39:36.263Z,15.00
2019-05-17T03:42:05.584Z,16.03
2019-05-17T03:44:34.821Z,18.43
2019-05-17T03:47:04.077Z,16.10
2019-05-17T03:49:33.473Z,18.37
2019-05-17T03:52:03.083Z,12.60
2019-05-17T03:54:32.651Z,18.07
2019-05-17T03:57:02.837Z,16.37
2019-05-17T03:59:33.409Z,18.87
2019-05-17T04:02:03.547Z,17.43
2019-05-17T04:04:33.260Z,16.57
2019-05-17T04:07:03.477Z,17.50
2019-05-17T04:09:34.015Z,22.30
2019-05-17T04:12:04.101Z,19.10
2019-05-17T04:14:34.663Z,20.77
2019-05-17T04:17:04.029Z,19.13
2019-05-17T04:19:33.821Z,19.50
2019-05-17T04:22:03.819Z,17.70
2019-05-17T04:24:33.140Z,15.10
2019-05-17T04:27:03.690Z,17.07
2019-05-17T04:29:33.416Z,18.60
2019-05-17T04:32:03.958Z,14.47
2019-05-17T04:34:33.830Z,15.20
2019-05-17T04:37:04.401Z,18.73
2019-05-17T04:39:34.052Z,13.50
2019-05-17T04:42:04.130Z,17.33
2019-05-17T04:44:33.662Z,18.73
2019-05-17T04:47:03.527Z,24.03
2019-05-17T04:49:33.349Z,17.67
2019-05-17T04:52:03.705Z,20.20
2019-05-17T04:54:33.574Z,18.53
2019-05-17T04:57:03.071Z,20.00
2019-05-17T04:59:33.754Z,16.93
2019-05-17T05:02:03.725Z,17.97
2019-05-17T05:04:37.785Z,19.97
2019-05-17T05:07:04.942Z,22.40
2019-05-17T05:09:36.158Z,21.23
2019-05-17T05:12:06.398Z,20.67
2019-05-17T05:14:35.840Z,20.73
2019-05-17T05:17:05.110Z,20.03
2019-05-17T05:19:34.336Z,19.20
2019-05-17T05:22:05.697Z,24.97
2019-05-17T05:24:35.059Z,19.43
2019-05-17T05:27:04.296Z,22.70
2019-05-17T05:29:33.621Z,22.13
2019-05-17T05:32:04.025Z,21.43
2019-05-17T05:34:33.411Z,23.97
2019-05-17T05:37:02.596Z,21.07
2019-05-17T05:39:33.015Z,22.20
2019-05-17T05:42:09.782Z,25.97
2019-05-17T05:44:33.294Z,24.50
2019-05-17T05:47:02.513Z,23.70
2019-05-17T05:49:32.186Z,22.87
2019-05-17T05:52:02.083Z,22.27
2019-05-17T05:54:31.964Z,24.87
2019-05-17T05:57:02.285Z,24.70
2019-05-17T05:59:35.199Z,23.60
2019-05-17T06:02:02.748Z,22.23
2019-05-17T06:04:32.035Z,24.73
2019-05-17T06:07:03.015Z,23.47
2019-05-17T06:09:32.441Z,25.20
2019-05-17T06:12:02.449Z,22.77
2019-05-17T06:14:32.506Z,27.10
2019-05-17T06:17:02.936Z,19.20
2019-05-17T06:19:32.762Z,20.30
2019-05-17T06:22:02.889Z,20.37
2019-05-17T06:24:34.268Z,21.33
2019-05-17T06:27:04.678Z,26.67
2019-05-17T06:29:34.461Z,21.63
2019-05-17T06:32:03.850Z,24.50
2019-05-17T06:34:33.182Z,19.20
2019-05-17T06:37:02.533Z,23.07
2019-05-17T06:39:32.929Z,19.83
2019-05-17T06:42:02.837Z,19.93
2019-05-17T06:44:32.695Z,21.23
2019-05-17T06:47:02.617Z,21.20
2019-05-17T06:49:32.257Z,21.33
2019-05-17T06:52:02.468Z,20.13
2019-05-17T06:54:33.099Z,21.67
2019-05-17T06:57:03.646Z,19.50
2019-05-17T06:59:32.874Z,20.50
2019-05-17T07:02:02.106Z,22.07
2019-05-17T07:04:32.425Z,24.93
2019-05-17T07:07:20.724Z,18.13
2019-05-17T07:09:51.680Z,19.57
2019-05-17T07:12:20.975Z,22.20
2019-05-17T07:14:50.699Z,23.27
2019-05-17T07:17:20.182Z,19.60
2019-05-17T07:19:50.737Z,17.73
2019-05-17T07:22:22.021Z,20.73
2019-05-17T07:24:51.080Z,17.57
2019-05-17T07:27:20.303Z,17.90
2019-05-17T07:29:50.319Z,24.27
2019-05-17T07:32:21.333Z,17.93
2019-05-17T07:34:50.881Z,18.30
2019-05-17T07:37:20.178Z,17.47
2019-05-17T07:40:00.423Z,17.17
2019-05-17T07:42:21.969Z,16.67
2019-05-17T07:44:51.309Z,19.10
2019-05-17T07:47:20.535Z,16.20
2019-05-17T07:49:49.796Z,16.73
2019-05-17T07:52:20.647Z,17.40
2019-05-17T07:54:50.866Z,16.13
2019-05-17T07:57:20.712Z,15.00
2019-05-17T07:59:50.812Z,15.40
2019-05-17T08:02:20.226Z,11.97
2019-05-17T08:04:50.231Z,13.37
2019-05-17T08:07:19.819Z,15.03
2019-05-17T08:09:50.611Z,14.20
2019-05-17T08:12:20.281Z,12.27
2019-05-17T08:14:50.285Z,13.70
2019-05-17T08:17:21.758Z,13.63
2019-05-17T08:19:51.187Z,12.30
2019-05-17T08:22:22.507Z,14.80
2019-05-17T08:24:51.802Z,11.77
2019-05-17T08:28:18.380Z,11.77
2019-05-17T08:31:01.986Z,11.37
2019-05-17T08:33:31.366Z,12.27
2019-05-17T08:36:14.715Z,12.07
2019-05-17T08:39:07.053Z,10.40
2019-05-17T08:41:36.275Z,10.73
2019-05-17T08:44:15.452Z,12.30
2019-05-17T08:46:44.858Z,11.70
2019-05-17T08:49:14.226Z,10.63
2019-05-17T08:51:43.470Z,10.30
2019-05-17T08:54:12.672Z,10.90
2019-05-17T08:56:42.105Z,11.03
2019-05-17T08:59:11.562Z,10.50
2019-05-17T09:01:41.825Z,9.37
2019-05-17T09:04:12.414Z,7.80
2019-05-17T09:06:43.888Z,8.93
2019-05-17T09:09:14.257Z,8.30
2019-05-17T09:11:44.671Z,9.73
2019-05-17T09:14:21.508Z,7.93
2019-05-17T09:16:51.018Z,7.40
2019-05-17T09:19:20.302Z,7.77
2019-05-17T09:21:50.338Z,7.50
2019-05-17T09:24:19.775Z,6.70
2019-05-17T09:26:50.079Z,7.00
2019-05-17T09:29:20.097Z,8.20
2019-05-17T09:31:50.579Z,7.10
2019-05-17T09:34:20.321Z,7.73
2019-05-17T09:36:49.788Z,8.37
2019-05-17T09:39:20.069Z,7.20
2019-05-17T09:41:50.312Z,9.17
2019-05-17T09:44:20.705Z,8.00
2019-05-17T09:46:51.036Z,7.47
2019-05-17T09:49:20.539Z,8.90
2019-05-17T09:51:49.995Z,8.43
2019-05-17T09:54:20.349Z,8.30
2019-05-17T09:56:49.976Z,7.80
2019-05-17T09:59:20.395Z,8.57
2019-05-17T10:01:49.891Z,7.43
2019-05-17T10:04:19.877Z,8.17
2019-05-17T10:06:51.337Z,6.87
2019-05-17T10:09:20.910Z,7.90
2019-05-17T10:11:50.165Z,8.13
2019-05-17T10:14:28.093Z,7.23
2019-05-17T10:16:54.426Z,7.47
2019-05-17T10:19:23.767Z,8.53
2019-05-17T10:21:53.101Z,8.10
2019-05-17T10:24:33.848Z,7.23
2019-05-17T10:26:54.587Z,7.60
2019-05-17T10:29:23.797Z,7.43
2019-05-17T10:31:53.087Z,7.33
2019-05-17T10:34:25.678Z,7.08
2019-05-17T10:36:56.580Z,7.30
2019-05-17T10:39:26.924Z,8.30
2019-05-17T10:41:56.446Z,8.30
2019-05-17T10:44:39.969Z,6.67
2019-05-17T10:46:56.842Z,8.50
2019-05-17T10:49:26.390Z,7.90
2019-05-17T10:51:55.706Z,7.60
2019-05-17T10:54:25.132Z,6.47
2019-05-17T10:56:54.600Z,7.50
2019-05-17T10:59:25.130Z,7.57
2019-05-17T11:01:54.411Z,7.63
2019-05-17T11:04:23.968Z,7.33
2019-05-17T11:06:54.242Z,8.33
2019-05-17T11:09:23.567Z,7.90
2019-05-17T11:11:52.937Z,8.20
2019-05-17T11:14:23.321Z,8.30
2019-05-17T11:16:52.620Z,8.40
2019-05-17T11:19:21.925Z,8.50
2019-05-17T11:21:51.298Z,8.13
2019-05-17T11:24:20.600Z,8.57
2019-05-17T11:26:50.920Z,7.47
2019-05-17T11:29:20.154Z,7.70
2019-05-17T11:31:50.518Z,9.63
2019-05-17T11:34:19.952Z,10.00
2019-05-17T11:36:49.234Z,7.90
2019-05-17T11:39:18.678Z,9.90
2019-05-17T11:41:49.085Z,9.67
2019-05-17T11:44:18.313Z,10.80
2019-05-17T11:46:48.630Z,9.20
2019-05-17T11:49:18.975Z,12.30
2019-05-17T11:51:48.156Z,9.10
2019-05-17T11:54:18.607Z,9.47
2019-05-17T11:56:47.988Z,9.30
2019-05-17T11:59:17.336Z,9.13
2019-05-17T12:01:46.719Z,11.50
2019-05-17T12:04:17.083Z,13.17
2019-05-17T12:06:46.415Z,11.13
2019-05-17T12:09:19.919Z,11.97
2019-05-17T12:11:49.129Z,11.80
2019-05-17T12:14:18.452Z,10.73
2019-05-17T12:16:48.853Z,9.70
2019-05-17T12:19:18.051Z,9.53
2019-05-17T12:21:47.433Z,12.57
2019-05-17T12:24:16.935Z,11.13
2019-05-17T12:26:47.552Z,9.43
2019-05-17T12:29:17.008Z,10.43
2019-05-17T12:31:46.380Z,10.17
2019-05-17T12:34:15.856Z,11.50
2019-05-17T12:36:45.172Z,9.97
2019-05-17T12:39:14.384Z,10.00
2019-05-17T12:41:43.863Z,10.33
2019-05-17T12:44:13.278Z,10.47
2019-05-17T12:46:42.510Z,10.80
2019-05-17T12:49:11.797Z,11.70
2019-05-17T12:51:41.028Z,10.30
2019-05-17T12:54:10.281Z,11.00
2019-05-17T12:56:43.762Z,11.47
2019-05-17T12:59:13.118Z,10.40
2019-05-17T13:01:42.368Z,11.00
2019-05-17T13:04:18.910Z,11.37
2019-05-17T13:06:48.080Z,11.47
2019-05-17T13:09:18.545Z,10.63
2019-05-17T13:11:57.711Z,11.63
2019-05-17T13:14:36.882Z,9.80
2019-05-17T13:17:55.835Z,11.47
2019-05-17T13:20:39.575Z,10.80
2019-05-17T13:23:08.872Z,10.93
2019-05-17T13:25:54.024Z,10.83
2019-05-17T13:28:23.295Z,10.73
2019-05-17T13:30:52.595Z,10.50
2019-05-17T13:33:21.822Z,10.93
2019-05-17T13:36:01.391Z,11.57
2019-05-17T13:38:30.929Z,12.20
2019-05-17T13:41:00.547Z,11.50
2019-05-17T13:43:29.808Z,11.60
2019-05-17T13:45:59.357Z,11.67
2019-05-17T13:48:28.793Z,11.00
2019-05-17T13:50:58.146Z,10.90
2019-05-17T13:53:27.596Z,11.50
2019-05-17T13:55:56.844Z,11.60
2019-05-17T13:58:26.442Z,9.50
2019-05-17T14:00:55.958Z,12.20
2019-05-17T14:03:25.315Z,11.50
2019-05-17T14:05:54.683Z,11.23
2019-05-17T14:08:24.024Z,12.70
2019-05-17T14:10:53.366Z,11.50
2019-05-17T14:13:22.829Z,11.97
2019-05-17T14:15:52.297Z,11.90
2019-05-17T14:18:21.645Z,13.23
2019-05-17T14:20:51.072Z,12.93
2019-05-17T14:23:21.753Z,13.10
2019-05-17T14:25:51.084Z,11.47
2019-05-17T14:28:20.952Z,15.53
2019-05-17T14:30:50.351Z,11.87
2019-05-17T14:33:19.820Z,13.37
2019-05-17T14:35:49.914Z,13.50
2019-05-17T14:38:19.373Z,11.40
2019-05-17T14:41:05.435Z,13.03
2019-05-17T14:43:19.834Z,12.27
2019-05-17T14:45:50.157Z,13.30
2019-05-17T14:48:19.494Z,13.00
2019-05-17T14:50:48.801Z,21.60
2019-05-17T14:53:18.114Z,11.83
2019-05-17T14:55:47.557Z,13.27
2019-05-17T14:58:16.812Z,12.93
2019-05-17T15:00:46.120Z,13.13
2019-05-17T15:03:15.419Z,12.73
2019-05-17T15:05:44.721Z,13.70
2019-05-17T15:08:15.271Z,12.97
2019-05-17T15:10:44.659Z,12.60
2019-05-17T15:13:14.956Z,13.40
2019-05-17T15:15:44.210Z,12.50
2019-05-17T15:18:13.463Z,13.20
2019-05-17T15:20:42.669Z,13.73
2019-05-17T15:23:11.908Z,13.40
2019-05-17T15:25:41.206Z,12.93
2019-05-17T15:28:10.546Z,13.60
2019-05-17T15:30:39.884Z,13.70
2019-05-17T15:33:09.124Z,14.50
2019-05-17T15:35:38.514Z,13.60
2019-05-17T15:38:10.935Z,13.00
2019-05-17T15:40:38.990Z,12.80
2019-05-17T15:43:08.335Z,12.60
2019-05-17T15:45:37.843Z,12.10
2019-05-17T15:48:07.339Z,12.67
2019-05-17T15:50:36.732Z,13.07
2019-05-17T15:53:06.048Z,12.37
2019-05-17T15:55:35.532Z,11.53
2019-05-17T15:58:05.007Z,11.80
2019-05-17T16:00:34.307Z,11.77
2019-05-17T16:03:03.775Z,12.93
2019-05-17T16:05:34.078Z,11.47
2019-05-17T16:08:03.387Z,13.03
2019-05-17T16:10:32.760Z,12.70
2019-05-17T16:13:03.484Z,11.57
2019-05-17T16:15:33.111Z,12.83
2019-05-17T16:18:02.368Z,11.87
2019-05-17T16:20:31.631Z,12.57
2019-05-17T16:23:01.080Z,12.97
2019-05-17T16:25:33.733Z,11.57
2019-05-17T16:28:01.392Z,12.67
2019-05-17T16:30:30.568Z,10.97
2019-05-17T16:33:02.955Z,12.17
2019-05-17T16:35:32.265Z,11.47
2019-05-17T16:38:01.654Z,9.30
2019-05-17T16:40:32.136Z,8.83
2019-05-17T16:43:16.772Z,8.80
2019-05-17T16:45:32.554Z,9.97
2019-05-17T16:48:01.930Z,9.13
2019-05-17T16:50:31.436Z,7.37
2019-05-17T16:53:05.838Z,6.20
2019-05-17T16:55:32.887Z,7.03
2019-05-17T16:58:02.188Z,8.30
2019-05-17T17:00:35.403Z,7.73
2019-05-17T17:03:05.293Z,6.20
2019-05-17T17:05:34.585Z,6.30
2019-05-17T17:08:04.066Z,5.80
2019-05-17T17:10:33.438Z,5.13
2019-05-17T17:13:06.034Z,5.90
2019-05-17T17:15:36.661Z,7.27
2019-05-17T17:18:06.168Z,5.43
2019-05-17T17:20:35.667Z,6.30
2019-05-17T17:23:05.148Z,6.47
2019-05-17T17:25:34.504Z,6.00
2019-05-17T17:28:06.132Z,6.67
2019-05-17T17:30:37.536Z,6.43
2019-05-17T17:33:06.862Z,7.10
2019-05-17T17:39:17.073Z,8.63
2019-05-17T17:42:06.112Z,7.67
2019-05-17T17:45:05.388Z,6.40
2019-05-17T17:47:34.633Z,7.93
2019-05-17T17:50:06.056Z,6.47
2019-05-17T17:52:35.353Z,6.83
2019-05-17T17:55:05.077Z,6.73
2019-05-17T17:57:34.514Z,8.33
2019-05-17T18:00:05.363Z,7.67
2019-05-17T18:02:34.694Z,6.27
2019-05-17T18:05:04.270Z,6.37
2019-05-17T18:07:34.839Z,6.23
2019-05-17T18:10:04.511Z,5.80
2019-05-17T18:12:33.979Z,5.90
2019-05-17T18:15:06.404Z,6.50
2019-05-17T18:17:39.494Z,6.67
2019-05-17T18:20:08.448Z,5.70
2019-05-17T18:22:38.761Z,5.77
2019-05-17T18:25:08.082Z,6.20
2019-05-17T18:27:37.353Z,6.77
2019-05-17T18:30:07.035Z,9.00
2019-05-17T18:32:38.544Z,8.53
2019-05-17T18:35:09.252Z,7.93
2019-05-17T18:37:38.893Z,7.27
2019-05-17T18:40:10.243Z,7.30
2019-05-17T18:42:39.569Z,6.30
2019-05-17T18:45:09.884Z,7.50
2019-05-17T18:47:40.241Z,6.20
2019-05-17T18:50:10.342Z,7.90
2019-05-17T18:52:39.670Z,6.20
2019-05-17T18:55:10.048Z,7.70
2019-05-17T18:57:39.422Z,7.70
2019-05-17T19:00:16.413Z,6.60
2019-05-17T19:02:46.320Z,7.73
2019-05-17T19:05:16.928Z,9.67
2019-05-17T19:07:47.330Z,11.43
2019-05-17T19:10:18.036Z,11.30
2019-05-17T19:12:47.256Z,11.00
2019-05-17T19:15:18.046Z,10.67
2019-05-17T19:17:49.466Z,9.43
2019-05-17T19:20:19.463Z,9.93
2019-05-17T19:22:49.739Z,8.93
2019-05-17T19:25:21.563Z,8.37
2019-05-17T19:27:51.075Z,8.63
2019-05-17T19:30:20.848Z,8.63
2019-05-17T19:32:50.233Z,8.27
2019-05-17T19:35:19.610Z,7.50
2019-05-17T19:37:48.891Z,7.90
2019-05-17T19:40:19.347Z,8.23
2019-05-17T19:42:49.781Z,8.13
2019-05-17T19:45:19.203Z,7.53
2019-05-17T19:47:48.450Z,7.50
2019-05-17T19:50:19.122Z,8.50
2019-05-17T19:52:48.407Z,9.90
2019-05-17T19:55:18.857Z,9.00
2019-05-17T19:57:49.033Z,8.70
2019-05-17T20:00:19.759Z,9.33
2019-05-17T20:02:49.057Z,8.53
2019-05-17T20:05:20.385Z,7.47
2019-05-17T20:07:49.826Z,7.50
2019-05-17T20:10:20.533Z,7.93
2019-05-17T20:12:49.907Z,8.63
2019-05-17T20:15:32.338Z,10.20
2019-05-17T20:17:50.247Z,10.33
2019-05-17T20:20:19.635Z,9.63
2019-05-17T20:22:49.005Z,12.80
2019-05-17T20:25:18.738Z,9.07
2019-05-17T20:27:48.161Z,9.83
2019-05-17T20:30:19.473Z,8.30
2019-05-17T20:32:48.916Z,9.70
2019-05-17T20:35:18.211Z,11.10
2019-05-17T20:37:49.158Z,10.47
2019-05-17T20:40:19.506Z,11.03
2019-05-17T20:42:48.766Z,9.40
2019-05-17T20:45:32.062Z,9.07
2019-05-17T20:47:51.124Z,8.40
2019-05-17T20:50:20.702Z,8.73
2019-05-17T20:52:50.046Z,9.23
2019-05-17T20:55:19.456Z,9.30
2019-05-17T20:57:48.928Z,8.67
2019-05-17T21:00:18.962Z,9.93
2019-05-17T21:02:48.185Z,8.47
2019-05-17T21:05:18.293Z,10.53
2019-05-17T21:07:47.609Z,9.33
2019-05-17T21:10:19.633Z,10.57
2019-05-17T21:12:49.008Z,10.60
2019-05-17T21:15:19.270Z,9.70
2019-05-17T21:17:48.495Z,9.10
2019-05-17T21:20:17.966Z,9.80
2019-05-17T21:22:48.403Z,10.23
2019-05-17T21:25:17.586Z,11.73
2019-05-17T21:27:46.804Z,8.80
2019-05-17T21:30:16.336Z,8.63
2019-05-17T21:32:45.557Z,10.37
2019-05-17T21:35:16.608Z,8.33
2019-05-17T21:37:46.013Z,8.20
2019-05-17T21:40:15.824Z,15.30
2019-05-17T21:42:45.014Z,8.23
2019-05-17T21:45:14.421Z,9.77
2019-05-17T21:47:43.767Z,9.13
2019-05-17T21:50:12.979Z,8.50
2019-05-17T21:52:42.215Z,9.17
2019-05-17T21:55:11.705Z,9.30
2019-05-17T21:57:40.971Z,8.97
2019-05-17T22:00:12.834Z,9.20
2019-05-17T22:02:42.078Z,9.17
2019-05-17T22:05:11.661Z,18.27
2019-05-17T22:07:40.963Z,9.43
2019-05-17T22:10:10.310Z,10.07
2019-05-17T22:12:39.645Z,8.90
2019-05-17T22:15:16.755Z,10.53
2019-05-17T22:17:46.088Z,11.73
2019-05-17T22:20:15.466Z,9.87
2019-05-17T22:22:44.836Z,11.60
2019-05-17T22:25:14.175Z,13.17
2019-05-17T22:27:43.393Z,10.27
2019-05-17T22:30:12.642Z,9.20
2019-05-17T22:32:41.974Z,10.90
2019-05-17T22:35:12.400Z,14.40
2019-05-17T22:37:41.784Z,11.27
2019-05-17T22:40:11.482Z,13.43
2019-05-17T22:42:40.871Z,13.00
2019-05-17T22:45:10.130Z,13.57
2019-05-17T22:47:39.654Z,14.30
2019-05-17T22:50:10.092Z,12.70
2019-05-17T22:52:39.465Z,15.97
2019-05-17T22:55:08.910Z,17.07
2019-05-17T22:57:38.411Z,16.03
2019-05-17T23:00:07.918Z,18.77
2019-05-17T23:02:37.326Z,15.10
2019-05-17T23:05:06.885Z,12.47
2019-05-17T23:07:36.258Z,15.67
2019-05-17T23:10:05.838Z,11.87
2019-05-17T23:12:35.187Z,17.73
2019-05-17T23:15:04.908Z,15.00
2019-05-17T23:17:34.573Z,19.00
2019-05-17T23:20:03.978Z,14.27
2019-05-17T23:22:33.432Z,18.80
2019-05-17T23:25:02.746Z,13.43
2019-05-17T23:27:32.124Z,18.83
2019-05-17T23:30:01.438Z,17.57
2019-05-17T23:32:30.752Z,20.67
2019-05-17T23:35:00.056Z,17.77
2019-05-17T23:37:29.488Z,25.30
2019-05-17T23:39:58.784Z,20.67
2019-05-17T23:42:28.057Z,25.83
2019-05-17T23:44:57.550Z,48.77
2019-05-17T23:47:26.742Z,46.70
2019-05-17T23:49:56.090Z,45.97
2019-05-17T23:52:25.494Z,43.07
2019-05-17T23:54:54.870Z,43.20
2019-05-17T23:57:24.070Z,44.10
2019-05-17T23:59:53.412Z,42.37
